sensor_id;sensor_type;location;lat;lon;timestamp;temperature;humidity
3134;DHT22;1577;49.912;10.924;2023-03-15T00:00:10;3.30;99.90
3134;DHT22;1577;49.912;10.924;2023-03-15T00:02:37;3.30;99.90
3134;DHT22;1577;49.912;10.924;2023-03-15T00:05:03;3.30;99.90
3134;DHT22;1577;49.912;10.924;2023-03-15T00:07:29;3.30;99.90
3134;DHT22;1577;49.912;10.924;2023-03-15T00:09:55;3.30;99.90
3134;DHT22;1577;49.912;10.924;2023-03-15T00:12:21;3.20;99.90
3134;DHT22;1577;49.912;10.924;2023-03-15T00:14:50;3.20;99.90
3134;DHT22;1577;49.912;10.924;2023-03-15T00:17:16;3.20;99.90
3134;DHT22;1577;49.912;10.924;2023-03-15T00:19:41;3.20;99.90
3134;DHT22;1577;49.912;10.924;2023-03-15T00:22:07;3.20;99.90
3134;DHT22;1577;49.912;10.924;2023-03-15T00:24:33;3.20;99.90
3134;DHT22;1577;49.912;10.924;2023-03-15T00:26:59;3.10;99.90
3134;DHT22;1577;49.912;10.924;2023-03-15T00:29:24;3.10;99.90
3134;DHT22;1577;49.912;10.924;2023-03-15T00:31:50;3.10;99.90
3134;DHT22;1577;49.912;10.924;2023-03-15T00:34:17;3.00;99.90
3134;DHT22;1577;49.912;10.924;2023-03-15T00:36:43;3.00;99.90
3134;DHT22;1577;49.912;10.924;2023-03-15T00:39:10;3.10;99.90
3134;DHT22;1577;49.912;10.924;2023-03-15T00:41:36;3.00;99.90
3134;DHT22;1577;49.912;10.924;2023-03-15T00:44:02;3.00;99.90
3134;DHT22;1577;49.912;10.924;2023-03-15T00:46:28;3.10;99.90
3134;DHT22;1577;49.912;10.924;2023-03-15T00:48:54;3.10;99.90
3134;DHT22;1577;49.912;10.924;2023-03-15T00:51:22;3.10;99.90
3134;DHT22;1577;49.912;10.924;2023-03-15T00:53:49;3.10;99.90
3134;DHT22;1577;49.912;10.924;2023-03-15T00:56:24;3.20;99.90
3134;DHT22;1577;49.912;10.924;2023-03-15T00:58:51;3.20;99.90
3134;DHT22;1577;49.912;10.924;2023-03-15T01:01:25;3.30;99.90
3134;DHT22;1577;49.912;10.924;2023-03-15T01:03:51;3.30;99.90
3134;DHT22;1577;49.912;10.924;2023-03-15T01:06:20;3.40;99.90
3134;DHT22;1577;49.912;10.924;2023-03-15T01:08:47;3.40;99.90
3134;DHT22;1577;49.912;10.924;2023-03-15T01:11:15;3.50;99.90
3134;DHT22;1577;49.912;10.924;2023-03-15T01:13:41;3.50;99.90
3134;DHT22;1577;49.912;10.924;2023-03-15T01:16:09;3.50;99.90
3134;DHT22;1577;49.912;10.924;2023-03-15T01:18:35;3.50;99.90
3134;DHT22;1577;49.912;10.924;2023-03-15T01:21:02;3.50;99.90
3134;DHT22;1577;49.912;10.924;2023-03-15T01:23:30;3.40;99.90
3134;DHT22;1577;49.912;10.924;2023-03-15T01:25:59;3.40;99.90
3134;DHT22;1577;49.912;10.924;2023-03-15T01:28:25;3.40;99.90
3134;DHT22;1577;49.912;10.924;2023-03-15T01:30:51;3.40;99.90
3134;DHT22;1577;49.912;10.924;2023-03-15T01:33:18;3.40;99.90
3134;DHT22;1577;49.912;10.924;2023-03-15T01:35:43;3.40;99.90
3134;DHT22;1577;49.912;10.924;2023-03-15T01:38:09;3.50;99.90
3134;DHT22;1577;49.912;10.924;2023-03-15T01:40:43;3.50;99.90
3134;DHT22;1577;49.912;10.924;2023-03-15T01:43:17;3.50;99.90
3134;DHT22;1577;49.912;10.924;2023-03-15T01:49:05;3.40;99.90
3134;DHT22;1577;49.912;10.924;2023-03-15T01:51:52;3.50;99.90
3134;DHT22;1577;49.912;10.924;2023-03-15T01:54:49;3.50;99.90
3134;DHT22;1577;49.912;10.924;2023-03-15T01:57:33;3.50;99.90
3134;DHT22;1577;49.912;10.924;2023-03-15T02:02:35;3.50;99.90
3134;DHT22;1577;49.912;10.924;2023-03-15T02:05:06;3.50;99.90
3134;DHT22;1577;49.912;10.924;2023-03-15T02:07:36;3.60;99.90
3134;DHT22;1577;49.912;10.924;2023-03-15T02:10:09;3.60;99.90
3134;DHT22;1577;49.912;10.924;2023-03-15T02:12:42;3.50;99.90
3134;DHT22;1577;49.912;10.924;2023-03-15T02:15:11;3.50;99.90
3134;DHT22;1577;49.912;10.924;2023-03-15T02:17:39;3.50;99.90
3134;DHT22;1577;49.912;10.924;2023-03-15T02:22:55;3.40;99.90
3134;DHT22;1577;49.912;10.924;2023-03-15T02:25:33;3.40;99.90
3134;DHT22;1577;49.912;10.924;2023-03-15T02:28:03;3.30;99.90
3134;DHT22;1577;49.912;10.924;2023-03-15T02:30:29;3.30;99.90
3134;DHT22;1577;49.912;10.924;2023-03-15T02:32:56;3.20;99.90
3134;DHT22;1577;49.912;10.924;2023-03-15T02:35:28;3.10;99.90
3134;DHT22;1577;49.912;10.924;2023-03-15T02:37:54;3.10;99.90
3134;DHT22;1577;49.912;10.924;2023-03-15T02:40:22;3.00;99.90
3134;DHT22;1577;49.912;10.924;2023-03-15T02:43:11;3.00;99.90
3134;DHT22;1577;49.912;10.924;2023-03-15T02:45:38;2.90;99.90
3134;DHT22;1577;49.912;10.924;2023-03-15T02:48:05;2.80;99.90
3134;DHT22;1577;49.912;10.924;2023-03-15T02:50:32;2.70;99.90
3134;DHT22;1577;49.912;10.924;2023-03-15T02:52:57;2.80;99.90
3134;DHT22;1577;49.912;10.924;2023-03-15T02:55:23;2.70;99.90
3134;DHT22;1577;49.912;10.924;2023-03-15T02:57:48;2.60;99.90
3134;DHT22;1577;49.912;10.924;2023-03-15T03:00:15;2.50;99.90
3134;DHT22;1577;49.912;10.924;2023-03-15T03:02:43;2.50;99.90
3134;DHT22;1577;49.912;10.924;2023-03-15T03:05:10;2.40;99.90
3134;DHT22;1577;49.912;10.924;2023-03-15T03:07:37;2.40;99.90
3134;DHT22;1577;49.912;10.924;2023-03-15T03:10:05;2.50;99.90
3134;DHT22;1577;49.912;10.924;2023-03-15T03:12:31;2.50;99.90
3134;DHT22;1577;49.912;10.924;2023-03-15T03:14:57;2.50;99.90
3134;DHT22;1577;49.912;10.924;2023-03-15T03:17:23;2.50;99.90
3134;DHT22;1577;49.912;10.924;2023-03-15T03:19:48;2.50;99.90
3134;DHT22;1577;49.912;10.924;2023-03-15T03:22:14;2.40;99.90
3134;DHT22;1577;49.912;10.924;2023-03-15T03:24:40;2.40;99.90
3134;DHT22;1577;49.912;10.924;2023-03-15T03:27:11;2.30;99.90
3134;DHT22;1577;49.912;10.924;2023-03-15T03:29:39;2.30;99.90
3134;DHT22;1577;49.912;10.924;2023-03-15T03:32:06;2.20;99.90
3134;DHT22;1577;49.912;10.924;2023-03-15T03:34:31;2.20;99.90
3134;DHT22;1577;49.912;10.924;2023-03-15T03:36:57;2.20;99.90
3134;DHT22;1577;49.912;10.924;2023-03-15T03:39:22;2.10;99.90
3134;DHT22;1577;49.912;10.924;2023-03-15T03:41:48;2.10;99.90
3134;DHT22;1577;49.912;10.924;2023-03-15T03:44:14;2.10;99.90
3134;DHT22;1577;49.912;10.924;2023-03-15T03:46:40;2.00;99.90
3134;DHT22;1577;49.912;10.924;2023-03-15T03:49:06;2.00;99.90
3134;DHT22;1577;49.912;10.924;2023-03-15T03:51:31;2.00;99.90
3134;DHT22;1577;49.912;10.924;2023-03-15T03:54:02;1.90;99.90
3134;DHT22;1577;49.912;10.924;2023-03-15T03:56:28;1.80;99.90
3134;DHT22;1577;49.912;10.924;2023-03-15T03:58:53;1.90;99.90
3134;DHT22;1577;49.912;10.924;2023-03-15T04:01:19;1.80;99.90
3134;DHT22;1577;49.912;10.924;2023-03-15T04:03:47;1.70;99.90
3134;DHT22;1577;49.912;10.924;2023-03-15T04:06:13;1.70;99.90
3134;DHT22;1577;49.912;10.924;2023-03-15T04:08:38;1.60;99.90
3134;DHT22;1577;49.912;10.924;2023-03-15T04:11:06;1.60;99.90
3134;DHT22;1577;49.912;10.924;2023-03-15T04:13:32;1.70;99.90
3134;DHT22;1577;49.912;10.924;2023-03-15T04:15:58;1.70;99.90
3134;DHT22;1577;49.912;10.924;2023-03-15T04:18:26;1.70;99.90
3134;DHT22;1577;49.912;10.924;2023-03-15T04:20:52;1.70;99.90
3134;DHT22;1577;49.912;10.924;2023-03-15T04:23:20;1.70;99.90
3134;DHT22;1577;49.912;10.924;2023-03-15T04:25:50;1.60;99.90
3134;DHT22;1577;49.912;10.924;2023-03-15T04:28:16;1.60;99.90
3134;DHT22;1577;49.912;10.924;2023-03-15T04:30:43;1.60;99.90
3134;DHT22;1577;49.912;10.924;2023-03-15T04:33:09;1.50;99.90
3134;DHT22;1577;49.912;10.924;2023-03-15T04:35:36;1.50;99.90
3134;DHT22;1577;49.912;10.924;2023-03-15T04:38:03;1.50;99.90
3134;DHT22;1577;49.912;10.924;2023-03-15T04:40:30;1.50;99.90
3134;DHT22;1577;49.912;10.924;2023-03-15T04:43:00;1.40;99.90
3134;DHT22;1577;49.912;10.924;2023-03-15T04:45:26;1.40;99.90
3134;DHT22;1577;49.912;10.924;2023-03-15T04:47:53;1.40;99.90
3134;DHT22;1577;49.912;10.924;2023-03-15T04:50:20;1.40;99.90
3134;DHT22;1577;49.912;10.924;2023-03-15T04:52:47;1.30;99.90
3134;DHT22;1577;49.912;10.924;2023-03-15T04:55:12;1.30;99.90
3134;DHT22;1577;49.912;10.924;2023-03-15T04:57:38;1.30;99.90
3134;DHT22;1577;49.912;10.924;2023-03-15T05:00:05;1.30;99.90
3134;DHT22;1577;49.912;10.924;2023-03-15T05:02:32;1.20;99.90
3134;DHT22;1577;49.912;10.924;2023-03-15T05:04:58;1.20;99.90
3134;DHT22;1577;49.912;10.924;2023-03-15T05:07:23;1.20;99.90
3134;DHT22;1577;49.912;10.924;2023-03-15T05:09:49;1.10;99.90
3134;DHT22;1577;49.912;10.924;2023-03-15T05:12:15;1.10;99.90
3134;DHT22;1577;49.912;10.924;2023-03-15T05:14:41;1.00;99.90
3134;DHT22;1577;49.912;10.924;2023-03-15T05:17:07;1.00;99.90
3134;DHT22;1577;49.912;10.924;2023-03-15T05:19:32;0.90;99.90
3134;DHT22;1577;49.912;10.924;2023-03-15T05:21:59;0.90;99.90
3134;DHT22;1577;49.912;10.924;2023-03-15T05:24:25;1.00;99.90
3134;DHT22;1577;49.912;10.924;2023-03-15T05:26:51;1.00;99.90
3134;DHT22;1577;49.912;10.924;2023-03-15T05:29:19;1.00;99.90
3134;DHT22;1577;49.912;10.924;2023-03-15T05:31:48;0.90;99.90
3134;DHT22;1577;49.912;10.924;2023-03-15T05:34:14;0.90;99.90
3134;DHT22;1577;49.912;10.924;2023-03-15T05:36:40;1.00;99.90
3134;DHT22;1577;49.912;10.924;2023-03-15T05:39:08;1.00;99.90
3134;DHT22;1577;49.912;10.924;2023-03-15T05:41:35;1.10;99.90
3134;DHT22;1577;49.912;10.924;2023-03-15T05:44:01;1.20;99.90
3134;DHT22;1577;49.912;10.924;2023-03-15T05:46:27;1.30;99.90
3134;DHT22;1577;49.912;10.924;2023-03-15T05:48:52;1.40;99.90
3134;DHT22;1577;49.912;10.924;2023-03-15T05:51:18;1.40;99.90
3134;DHT22;1577;49.912;10.924;2023-03-15T05:53:44;1.60;99.90
3134;DHT22;1577;49.912;10.924;2023-03-15T05:56:10;1.70;99.90
3134;DHT22;1577;49.912;10.924;2023-03-15T05:58:35;1.70;99.90
3134;DHT22;1577;49.912;10.924;2023-03-15T06:01:02;1.80;99.90
3134;DHT22;1577;49.912;10.924;2023-03-15T06:03:28;1.80;99.90
3134;DHT22;1577;49.912;10.924;2023-03-15T06:05:56;1.90;99.90
3134;DHT22;1577;49.912;10.924;2023-03-15T06:08:21;2.00;99.90
3134;DHT22;1577;49.912;10.924;2023-03-15T06:10:47;2.10;99.90
3134;DHT22;1577;49.912;10.924;2023-03-15T06:13:12;2.10;99.90
3134;DHT22;1577;49.912;10.924;2023-03-15T06:15:38;2.20;99.90
3134;DHT22;1577;49.912;10.924;2023-03-15T06:18:04;2.20;99.90
3134;DHT22;1577;49.912;10.924;2023-03-15T06:20:30;2.20;99.90
3134;DHT22;1577;49.912;10.924;2023-03-15T06:22:56;2.30;99.90
3134;DHT22;1577;49.912;10.924;2023-03-15T06:25:22;2.30;99.90
3134;DHT22;1577;49.912;10.924;2023-03-15T06:27:48;2.40;99.90
3134;DHT22;1577;49.912;10.924;2023-03-15T06:30:14;2.80;99.90
3134;DHT22;1577;49.912;10.924;2023-03-15T06:32:40;3.40;99.90
3134;DHT22;1577;49.912;10.924;2023-03-15T06:35:05;4.10;99.90
3134;DHT22;1577;49.912;10.924;2023-03-15T06:37:31;4.80;99.90
3134;DHT22;1577;49.912;10.924;2023-03-15T06:39:57;5.30;99.90
3134;DHT22;1577;49.912;10.924;2023-03-15T06:42:22;5.60;99.90
3134;DHT22;1577;49.912;10.924;2023-03-15T06:44:48;5.70;99.90
3134;DHT22;1577;49.912;10.924;2023-03-15T06:47:13;5.90;99.90
3134;DHT22;1577;49.912;10.924;2023-03-15T06:49:39;5.80;99.90
3134;DHT22;1577;49.912;10.924;2023-03-15T06:52:06;5.30;99.90
3134;DHT22;1577;49.912;10.924;2023-03-15T06:54:32;4.90;99.90
3134;DHT22;1577;49.912;10.924;2023-03-15T06:56:58;4.60;99.90
3134;DHT22;1577;49.912;10.924;2023-03-15T06:59:24;4.40;99.90
3134;DHT22;1577;49.912;10.924;2023-03-15T07:01:49;4.30;99.90
3134;DHT22;1577;49.912;10.924;2023-03-15T07:04:15;4.30;99.90
3134;DHT22;1577;49.912;10.924;2023-03-15T07:06:40;4.60;99.90
3134;DHT22;1577;49.912;10.924;2023-03-15T07:09:06;5.10;99.90
3134;DHT22;1577;49.912;10.924;2023-03-15T07:11:32;5.40;99.90
3134;DHT22;1577;49.912;10.924;2023-03-15T07:13:58;5.50;99.90
3134;DHT22;1577;49.912;10.924;2023-03-15T07:16:24;5.60;99.90
3134;DHT22;1577;49.912;10.924;2023-03-15T07:18:50;5.70;99.90
3134;DHT22;1577;49.912;10.924;2023-03-15T07:21:18;5.80;99.90
3134;DHT22;1577;49.912;10.924;2023-03-15T07:23:43;5.70;99.90
3134;DHT22;1577;49.912;10.924;2023-03-15T07:26:09;5.50;99.90
3134;DHT22;1577;49.912;10.924;2023-03-15T07:28:34;5.40;99.90
3134;DHT22;1577;49.912;10.924;2023-03-15T07:31:02;5.20;99.90
3134;DHT22;1577;49.912;10.924;2023-03-15T07:33:30;5.40;99.90
3134;DHT22;1577;49.912;10.924;2023-03-15T07:35:56;5.70;99.90
3134;DHT22;1577;49.912;10.924;2023-03-15T07:38:23;6.10;99.90
3134;DHT22;1577;49.912;10.924;2023-03-15T07:40:49;6.40;99.90
3134;DHT22;1577;49.912;10.924;2023-03-15T07:43:15;6.80;99.90
3134;DHT22;1577;49.912;10.924;2023-03-15T07:45:41;7.00;99.90
3134;DHT22;1577;49.912;10.924;2023-03-15T07:48:07;7.20;99.90
3134;DHT22;1577;49.912;10.924;2023-03-15T07:50:33;7.20;99.90
3134;DHT22;1577;49.912;10.924;2023-03-15T07:52:58;7.10;99.90
3134;DHT22;1577;49.912;10.924;2023-03-15T07:55:24;6.90;99.90
3134;DHT22;1577;49.912;10.924;2023-03-15T07:57:50;6.60;99.90
3134;DHT22;1577;49.912;10.924;2023-03-15T08:00:17;6.30;99.90
3134;DHT22;1577;49.912;10.924;2023-03-15T08:02:43;5.90;99.90
3134;DHT22;1577;49.912;10.924;2023-03-15T08:05:09;5.80;99.90
3134;DHT22;1577;49.912;10.924;2023-03-15T08:07:34;5.70;99.90
3134;DHT22;1577;49.912;10.924;2023-03-15T08:10:01;5.50;99.90
3134;DHT22;1577;49.912;10.924;2023-03-15T08:12:27;5.40;99.90
3134;DHT22;1577;49.912;10.924;2023-03-15T08:14:54;5.20;99.90
3134;DHT22;1577;49.912;10.924;2023-03-15T08:17:19;5.10;99.90
3134;DHT22;1577;49.912;10.924;2023-03-15T08:19:45;5.10;99.90
3134;DHT22;1577;49.912;10.924;2023-03-15T08:22:11;5.30;99.90
3134;DHT22;1577;49.912;10.924;2023-03-15T08:24:36;5.40;99.90
3134;DHT22;1577;49.912;10.924;2023-03-15T08:27:02;5.80;99.90
3134;DHT22;1577;49.912;10.924;2023-03-15T08:29:29;6.20;99.90
3134;DHT22;1577;49.912;10.924;2023-03-15T08:31:55;6.20;99.90
3134;DHT22;1577;49.912;10.924;2023-03-15T08:34:21;6.20;99.90
3134;DHT22;1577;49.912;10.924;2023-03-15T08:36:47;6.20;99.90
3134;DHT22;1577;49.912;10.924;2023-03-15T08:39:13;6.20;99.90
3134;DHT22;1577;49.912;10.924;2023-03-15T08:41:39;6.10;99.90
3134;DHT22;1577;49.912;10.924;2023-03-15T08:44:05;5.90;99.90
3134;DHT22;1577;49.912;10.924;2023-03-15T08:46:32;5.70;99.90
3134;DHT22;1577;49.912;10.924;2023-03-15T08:48:58;5.50;99.90
3134;DHT22;1577;49.912;10.924;2023-03-15T08:51:24;5.40;99.90
3134;DHT22;1577;49.912;10.924;2023-03-15T08:53:51;5.40;99.90
3134;DHT22;1577;49.912;10.924;2023-03-15T08:56:18;5.40;99.90
3134;DHT22;1577;49.912;10.924;2023-03-15T08:58:43;5.30;99.90
3134;DHT22;1577;49.912;10.924;2023-03-15T09:01:13;5.20;99.90
3134;DHT22;1577;49.912;10.924;2023-03-15T09:03:38;5.10;99.90
3134;DHT22;1577;49.912;10.924;2023-03-15T09:06:05;5.20;99.90
3134;DHT22;1577;49.912;10.924;2023-03-15T09:08:30;5.20;99.90
3134;DHT22;1577;49.912;10.924;2023-03-15T09:10:58;5.20;99.90
3134;DHT22;1577;49.912;10.924;2023-03-15T09:13:24;5.20;99.90
3134;DHT22;1577;49.912;10.924;2023-03-15T09:15:51;5.10;99.90
3134;DHT22;1577;49.912;10.924;2023-03-15T09:18:18;5.00;99.90
3134;DHT22;1577;49.912;10.924;2023-03-15T09:20:44;4.90;99.90
3134;DHT22;1577;49.912;10.924;2023-03-15T09:23:10;4.80;99.90
3134;DHT22;1577;49.912;10.924;2023-03-15T09:25:35;4.70;99.90
3134;DHT22;1577;49.912;10.924;2023-03-15T09:28:02;4.50;99.90
3134;DHT22;1577;49.912;10.924;2023-03-15T09:30:28;4.40;99.90
3134;DHT22;1577;49.912;10.924;2023-03-15T09:32:54;4.20;99.90
3134;DHT22;1577;49.912;10.924;2023-03-15T09:35:20;4.10;99.90
3134;DHT22;1577;49.912;10.924;2023-03-15T09:37:47;3.90;99.90
3134;DHT22;1577;49.912;10.924;2023-03-15T09:40:26;3.90;99.90
3134;DHT22;1577;49.912;10.924;2023-03-15T09:43:02;3.80;99.90
3134;DHT22;1577;49.912;10.924;2023-03-15T09:48:31;3.80;99.90
3134;DHT22;1577;49.912;10.924;2023-03-15T09:51:04;3.80;99.90
3134;DHT22;1577;49.912;10.924;2023-03-15T09:53:51;3.70;99.90
3134;DHT22;1577;49.912;10.924;2023-03-15T09:56:31;3.60;99.90
3134;DHT22;1577;49.912;10.924;2023-03-15T09:58:59;3.70;99.90
3134;DHT22;1577;49.912;10.924;2023-03-15T10:01:35;3.70;99.90
3134;DHT22;1577;49.912;10.924;2023-03-15T10:06:51;3.90;99.90
3134;DHT22;1577;49.912;10.924;2023-03-15T10:09:23;3.90;99.90
3134;DHT22;1577;49.912;10.924;2023-03-15T10:14:51;3.90;99.90
3134;DHT22;1577;49.912;10.924;2023-03-15T10:17:46;3.90;99.90
3134;DHT22;1577;49.912;10.924;2023-03-15T10:20:20;4.00;99.90
3134;DHT22;1577;49.912;10.924;2023-03-15T10:23:01;4.00;99.90
3134;DHT22;1577;49.912;10.924;2023-03-15T10:25:30;3.90;99.90
3134;DHT22;1577;49.912;10.924;2023-03-15T10:28:08;3.90;99.90
3134;DHT22;1577;49.912;10.924;2023-03-15T10:30:37;3.90;99.90
3134;DHT22;1577;49.912;10.924;2023-03-15T10:33:15;4.00;99.90
3134;DHT22;1577;49.912;10.924;2023-03-15T10:35:43;4.00;99.90
3134;DHT22;1577;49.912;10.924;2023-03-15T10:38:20;4.10;99.90
3134;DHT22;1577;49.912;10.924;2023-03-15T10:46:10;4.40;99.90
3134;DHT22;1577;49.912;10.924;2023-03-15T10:48:39;4.50;99.90
3134;DHT22;1577;49.912;10.924;2023-03-15T10:51:19;4.60;99.90
3134;DHT22;1577;49.912;10.924;2023-03-15T10:56:46;4.50;99.90
3134;DHT22;1577;49.912;10.924;2023-03-15T10:59:21;4.50;99.90
3134;DHT22;1577;49.912;10.924;2023-03-15T11:01:50;4.50;99.90
3134;DHT22;1577;49.912;10.924;2023-03-15T11:04:26;4.60;99.90
3134;DHT22;1577;49.912;10.924;2023-03-15T11:06:59;4.70;99.90
3134;DHT22;1577;49.912;10.924;2023-03-15T11:12:07;4.80;99.90
3134;DHT22;1577;49.912;10.924;2023-03-15T11:14:39;4.80;99.90
3134;DHT22;1577;49.912;10.924;2023-03-15T11:17:07;4.90;99.90
3134;DHT22;1577;49.912;10.924;2023-03-15T11:19:38;4.90;99.90
3134;DHT22;1577;49.912;10.924;2023-03-15T11:22:10;4.90;99.90
3134;DHT22;1577;49.912;10.924;2023-03-15T11:24:36;4.80;99.90
3134;DHT22;1577;49.912;10.924;2023-03-15T11:27:09;4.60;99.90
3134;DHT22;1577;49.912;10.924;2023-03-15T11:29:37;4.60;99.90
3134;DHT22;1577;49.912;10.924;2023-03-15T11:32:17;4.60;99.90
3134;DHT22;1577;49.912;10.924;2023-03-15T11:38:12;4.70;99.90
3134;DHT22;1577;49.912;10.924;2023-03-15T11:40:20;4.70;99.90
3134;DHT22;1577;49.912;10.924;2023-03-15T11:45:53;4.70;99.90
3134;DHT22;1577;49.912;10.924;2023-03-15T11:51:23;4.60;99.90
3134;DHT22;1577;49.912;10.924;2023-03-15T11:53:54;4.60;99.90
3134;DHT22;1577;49.912;10.924;2023-03-15T11:56:26;4.60;99.90
3134;DHT22;1577;49.912;10.924;2023-03-15T11:59:11;4.60;99.90
3134;DHT22;1577;49.912;10.924;2023-03-15T12:01:42;4.60;99.90
3134;DHT22;1577;49.912;10.924;2023-03-15T12:07:03;4.50;99.90
3134;DHT22;1577;49.912;10.924;2023-03-15T12:12:18;4.60;99.90
3134;DHT22;1577;49.912;10.924;2023-03-15T12:22:41;4.50;99.90
3134;DHT22;1577;49.912;10.924;2023-03-15T12:25:18;4.50;99.90
3134;DHT22;1577;49.912;10.924;2023-03-15T12:27:50;4.40;99.90
3134;DHT22;1577;49.912;10.924;2023-03-15T12:30:22;4.40;99.90
3134;DHT22;1577;49.912;10.924;2023-03-15T12:32:52;4.40;99.90
3134;DHT22;1577;49.912;10.924;2023-03-15T12:35:20;4.40;99.90
3134;DHT22;1577;49.912;10.924;2023-03-15T12:37:49;4.30;99.90
3134;DHT22;1577;49.912;10.924;2023-03-15T12:56:29;4.70;99.90
3134;DHT22;1577;49.912;10.924;2023-03-15T13:01:50;4.80;99.90
3134;DHT22;1577;49.912;10.924;2023-03-15T13:04:16;4.90;99.90
3134;DHT22;1577;49.912;10.924;2023-03-15T13:07:13;5.00;99.90
3134;DHT22;1577;49.912;10.924;2023-03-15T13:09:58;5.20;99.90
3134;DHT22;1577;49.912;10.924;2023-03-15T13:12:46;5.40;99.90
3134;DHT22;1577;49.912;10.924;2023-03-15T13:15:22;5.70;99.90
3134;DHT22;1577;49.912;10.924;2023-03-15T13:17:56;5.80;99.90
3134;DHT22;1577;49.912;10.924;2023-03-15T13:23:25;6.00;99.90
3134;DHT22;1577;49.912;10.924;2023-03-15T13:28:26;6.10;99.90
3134;DHT22;1577;49.912;10.924;2023-03-15T13:31:18;6.20;99.90
3134;DHT22;1577;49.912;10.924;2023-03-15T13:33:49;6.20;99.90
3134;DHT22;1577;49.912;10.924;2023-03-15T13:36:18;6.30;99.90
3134;DHT22;1577;49.912;10.924;2023-03-15T13:38:53;6.30;99.90
3134;DHT22;1577;49.912;10.924;2023-03-15T13:43:52;6.30;99.90
3134;DHT22;1577;49.912;10.924;2023-03-15T13:46:21;6.30;99.90
3134;DHT22;1577;49.912;10.924;2023-03-15T13:48:50;6.40;99.90
3134;DHT22;1577;49.912;10.924;2023-03-15T13:51:32;6.40;99.90
3134;DHT22;1577;49.912;10.924;2023-03-15T13:54:33;6.50;99.90
3134;DHT22;1577;49.912;10.924;2023-03-15T13:57:06;6.50;99.90
3134;DHT22;1577;49.912;10.924;2023-03-15T13:59:59;6.60;99.90
3134;DHT22;1577;49.912;10.924;2023-03-15T14:02:45;6.50;99.90
3134;DHT22;1577;49.912;10.924;2023-03-15T14:05:41;6.40;99.90
3134;DHT22;1577;49.912;10.924;2023-03-15T14:08:24;6.20;99.90
3134;DHT22;1577;49.912;10.924;2023-03-15T14:13:30;6.10;99.90
3134;DHT22;1577;49.912;10.924;2023-03-15T14:16:05;6.10;99.90
3134;DHT22;1577;49.912;10.924;2023-03-15T14:18:36;6.10;99.90
3134;DHT22;1577;49.912;10.924;2023-03-15T14:21:15;6.10;99.90
3134;DHT22;1577;49.912;10.924;2023-03-15T14:23:44;6.10;99.90
3134;DHT22;1577;49.912;10.924;2023-03-15T14:26:17;6.00;99.90
3134;DHT22;1577;49.912;10.924;2023-03-15T14:28:53;6.00;99.90
3134;DHT22;1577;49.912;10.924;2023-03-15T14:31:25;6.00;99.90
3134;DHT22;1577;49.912;10.924;2023-03-15T14:33:54;5.90;99.90
3134;DHT22;1577;49.912;10.924;2023-03-15T14:36:31;5.90;99.90
3134;DHT22;1577;49.912;10.924;2023-03-15T14:38:59;6.00;99.90
3134;DHT22;1577;49.912;10.924;2023-03-15T14:41:34;6.10;99.90
3134;DHT22;1577;49.912;10.924;2023-03-15T14:44:01;6.30;99.90
3134;DHT22;1577;49.912;10.924;2023-03-15T14:46:30;6.40;99.90
3134;DHT22;1577;49.912;10.924;2023-03-15T14:48:56;6.40;99.90
3134;DHT22;1577;49.912;10.924;2023-03-15T14:51:22;6.40;99.90
3134;DHT22;1577;49.912;10.924;2023-03-15T14:53:51;6.40;99.90
3134;DHT22;1577;49.912;10.924;2023-03-15T14:56:18;6.30;99.90
3134;DHT22;1577;49.912;10.924;2023-03-15T14:58:44;6.20;99.90
3134;DHT22;1577;49.912;10.924;2023-03-15T15:01:16;6.10;99.90
3134;DHT22;1577;49.912;10.924;2023-03-15T15:03:54;6.10;99.90
3134;DHT22;1577;49.912;10.924;2023-03-15T15:06:22;6.00;99.90
3134;DHT22;1577;49.912;10.924;2023-03-15T15:08:50;5.90;99.90
3134;DHT22;1577;49.912;10.924;2023-03-15T15:11:17;5.70;99.90
3134;DHT22;1577;49.912;10.924;2023-03-15T15:13:43;5.70;99.90
3134;DHT22;1577;49.912;10.924;2023-03-15T15:16:09;5.60;99.90
3134;DHT22;1577;49.912;10.924;2023-03-15T15:18:35;5.60;99.90
3134;DHT22;1577;49.912;10.924;2023-03-15T15:21:10;5.50;99.90
3134;DHT22;1577;49.912;10.924;2023-03-15T15:23:38;5.40;99.90
3134;DHT22;1577;49.912;10.924;2023-03-15T15:26:06;5.30;99.90
3134;DHT22;1577;49.912;10.924;2023-03-15T15:28:36;5.30;99.90
3134;DHT22;1577;49.912;10.924;2023-03-15T15:31:04;5.40;99.90
3134;DHT22;1577;49.912;10.924;2023-03-15T15:33:31;5.40;99.90
3134;DHT22;1577;49.912;10.924;2023-03-15T15:35:56;5.40;99.90
3134;DHT22;1577;49.912;10.924;2023-03-15T15:38:26;5.50;99.90
3134;DHT22;1577;49.912;10.924;2023-03-15T15:40:53;5.50;99.90
3134;DHT22;1577;49.912;10.924;2023-03-15T15:43:18;5.50;99.90
3134;DHT22;1577;49.912;10.924;2023-03-15T15:45:45;5.50;99.90
3134;DHT22;1577;49.912;10.924;2023-03-15T15:48:11;5.40;99.90
3134;DHT22;1577;49.912;10.924;2023-03-15T15:50:36;5.40;99.90
3134;DHT22;1577;49.912;10.924;2023-03-15T15:53:04;5.30;99.90
3134;DHT22;1577;49.912;10.924;2023-03-15T15:55:33;5.10;99.90
3134;DHT22;1577;49.912;10.924;2023-03-15T15:58:00;4.90;99.90
3134;DHT22;1577;49.912;10.924;2023-03-15T16:00:27;4.80;99.90
3134;DHT22;1577;49.912;10.924;2023-03-15T16:02:54;4.60;99.90
3134;DHT22;1577;49.912;10.924;2023-03-15T16:05:26;4.30;99.90
3134;DHT22;1577;49.912;10.924;2023-03-15T16:07:53;4.20;99.90
3134;DHT22;1577;49.912;10.924;2023-03-15T16:10:21;4.00;99.90
3134;DHT22;1577;49.912;10.924;2023-03-15T16:12:48;4.00;99.90
3134;DHT22;1577;49.912;10.924;2023-03-15T16:15:15;4.00;99.90
3134;DHT22;1577;49.912;10.924;2023-03-15T16:17:41;3.90;99.90
3134;DHT22;1577;49.912;10.924;2023-03-15T16:20:09;3.80;99.90
3134;DHT22;1577;49.912;10.924;2023-03-15T16:22:37;3.60;99.90
3134;DHT22;1577;49.912;10.924;2023-03-15T16:25:13;3.50;99.90
3134;DHT22;1577;49.912;10.924;2023-03-15T16:27:39;3.40;99.90
3134;DHT22;1577;49.912;10.924;2023-03-15T16:30:05;3.30;99.90
3134;DHT22;1577;49.912;10.924;2023-03-15T16:32:31;3.20;99.90
3134;DHT22;1577;49.912;10.924;2023-03-15T16:34:59;3.20;99.90
3134;DHT22;1577;49.912;10.924;2023-03-15T16:37:29;3.10;99.90
3134;DHT22;1577;49.912;10.924;2023-03-15T16:39:56;3.10;99.90
3134;DHT22;1577;49.912;10.924;2023-03-15T16:42:24;3.20;99.90
3134;DHT22;1577;49.912;10.924;2023-03-15T16:44:50;3.30;99.90
3134;DHT22;1577;49.912;10.924;2023-03-15T16:47:16;3.40;99.90
3134;DHT22;1577;49.912;10.924;2023-03-15T16:49:42;3.30;99.90
3134;DHT22;1577;49.912;10.924;2023-03-15T16:52:10;3.30;99.90
3134;DHT22;1577;49.912;10.924;2023-03-15T16:54:36;3.30;99.90
3134;DHT22;1577;49.912;10.924;2023-03-15T16:57:03;3.30;99.90
3134;DHT22;1577;49.912;10.924;2023-03-15T16:59:29;3.30;99.90
3134;DHT22;1577;49.912;10.924;2023-03-15T17:01:55;3.30;99.90
3134;DHT22;1577;49.912;10.924;2023-03-15T17:04:21;3.30;99.90
3134;DHT22;1577;49.912;10.924;2023-03-15T17:06:47;3.20;99.90
3134;DHT22;1577;49.912;10.924;2023-03-15T17:09:17;3.10;99.90
3134;DHT22;1577;49.912;10.924;2023-03-15T17:11:46;3.10;99.90
3134;DHT22;1577;49.912;10.924;2023-03-15T17:14:30;3.00;99.90
3134;DHT22;1577;49.912;10.924;2023-03-15T17:16:58;2.90;99.90
3134;DHT22;1577;49.912;10.924;2023-03-15T17:19:24;3.00;99.90
3134;DHT22;1577;49.912;10.924;2023-03-15T17:21:51;2.90;99.90
3134;DHT22;1577;49.912;10.924;2023-03-15T17:24:17;2.80;99.90
3134;DHT22;1577;49.912;10.924;2023-03-15T17:26:43;2.70;99.90
3134;DHT22;1577;49.912;10.924;2023-03-15T17:29:12;2.70;99.90
3134;DHT22;1577;49.912;10.924;2023-03-15T17:31:39;2.70;99.90